Time;durP1;ratioP1;P1;durP2;ratioP2;P2;SDS_P1;SDS_P2;PMS_P1;PMS_P2;Temp;Humidity;BMP_temperature;BMP_pressure;BME280_temperature;BME280_humidity;BME280_pressure;Samples;Min_cycle;Max_cycle;Signal;HPM_P1;HPM_P2
2023/06/24 00:00:38;;;;;;;1.80;0.50;;;14.30;99.90;;;;;;5015064;28;20290;-77
2023/06/24 00:03:09;;;;;;;1.92;0.80;;;14.40;99.90;;;;;;5015531;28;20685;-76
2023/06/24 00:05:43;;;;;;;0.40;0.40;;;14.40;99.90;;;;;;5011021;28;20195;-77
2023/06/24 00:08:13;;;;;;;1.13;0.60;;;14.60;99.90;;;;;;5013263;28;20209;-77
2023/06/24 00:10:46;;;;;;;0.40;0.40;;;14.70;99.90;;;;;;5014224;28;20551;-77
2023/06/24 00:13:17;;;;;;;0.60;0.40;;;14.80;99.90;;;;;;5015684;28;20195;-78
2023/06/24 00:15:48;;;;;;;1.65;0.47;;;14.90;99.90;;;;;;5006764;28;20195;-78
2023/06/24 00:18:19;;;;;;;0.98;0.60;;;15.00;99.90;;;;;;5028701;28;20191;-78
2023/06/24 00:20:51;;;;;;;0.70;0.60;;;15.10;99.90;;;;;;5018399;28;20230;-78
2023/06/24 00:23:26;;;;;;;0.65;0.40;;;15.20;99.90;;;;;;5006263;28;20269;-77
2023/06/24 00:25:58;;;;;;;2.85;0.47;;;15.20;99.90;;;;;;5013696;28;20233;-77
2023/06/24 00:28:29;;;;;;;1.15;0.50;;;15.30;99.90;;;;;;5007553;28;20187;-78
2023/06/24 00:30:59;;;;;;;0.60;0.50;;;15.40;99.90;;;;;;5004390;28;20269;-79
2023/06/24 00:33:33;;;;;;;1.77;0.40;;;15.60;99.90;;;;;;5019482;28;20562;-79
2023/06/24 00:36:06;;;;;;;1.50;0.47;;;15.70;99.90;;;;;;5009909;28;20207;-79
2023/06/24 00:38:37;;;;;;;1.70;0.40;;;15.80;99.90;;;;;;5008986;28;20203;-80
2023/06/24 00:41:08;;;;;;;0.55;0.35;;;15.80;99.90;;;;;;5009337;28;20203;-78
2023/06/24 00:43:39;;;;;;;1.17;0.60;;;15.80;99.90;;;;;;5011007;28;20195;-77
2023/06/24 00:46:10;;;;;;;2.40;0.47;;;15.90;99.90;;;;;;5006655;28;20203;-78
2023/06/24 00:48:41;;;;;;;0.65;0.50;;;15.90;99.90;;;;;;5014071;28;20233;-77
2023/06/24 00:51:14;;;;;;;1.23;0.40;;;15.90;99.90;;;;;;5008661;28;20219;-78
2023/06/24 00:53:44;;;;;;;1.15;0.50;;;15.90;99.90;;;;;;5005509;28;20210;-78
2023/06/24 00:56:17;;;;;;;1.08;0.60;;;16.00;99.90;;;;;;5012499;28;20227;-78
2023/06/24 00:58:47;;;;;;;0.52;0.40;;;16.10;99.90;;;;;;5014683;28;20202;-78
2023/06/24 01:01:19;;;;;;;2.08;0.70;;;16.10;99.90;;;;;;5011892;28;20560;-79
2023/06/24 01:03:50;;;;;;;1.70;0.60;;;16.20;99.90;;;;;;5013677;28;20205;-78
2023/06/24 01:06:23;;;;;;;0.55;0.40;;;16.30;99.90;;;;;;5013327;28;20195;-78
2023/06/24 01:08:56;;;;;;;1.13;0.50;;;16.30;99.90;;;;;;5010995;28;20199;-78
2023/06/24 01:11:27;;;;;;;0.95;0.40;;;16.50;99.90;;;;;;5013702;28;20253;-78
2023/06/24 01:14:00;;;;;;;1.23;0.43;;;16.50;99.90;;;;;;5009159;28;20672;-77
2023/06/24 01:16:42;;;;;;;0.68;0.40;;;16.50;99.90;;;;;;5007595;28;20225;-78
2023/06/24 01:19:41;;;;;;;0.65;0.30;;;16.50;99.90;;;;;;5002943;28;20726;-78
2023/06/24 01:22:28;;;;;;;0.63;0.35;;;16.60;99.90;;;;;;5001735;28;20207;-80
2023/06/24 01:25:16;;;;;;;0.85;0.38;;;16.70;99.90;;;;;;5012784;28;20224;-77
2023/06/24 01:28:08;;;;;;;0.60;0.40;;;16.70;99.90;;;;;;5004440;28;20207;-80
2023/06/24 01:31:08;;;;;;;1.85;0.50;;;16.80;99.90;;;;;;5011564;28;20191;-82
2023/06/24 01:33:48;;;;;;;1.30;0.45;;;16.90;99.90;;;;;;5006311;28;20214;-77
2023/06/24 01:36:21;;;;;;;0.30;0.30;;;17.00;99.90;;;;;;5013919;28;20274;-78
2023/06/24 01:38:54;;;;;;;0.40;0.40;;;17.10;99.90;;;;;;5014044;28;20665;-78
2023/06/24 01:41:27;;;;;;;0.65;0.38;;;17.00;99.90;;;;;;5002808;28;20731;-79
2023/06/24 01:44:00;;;;;;;0.57;0.50;;;17.10;99.90;;;;;;5013634;28;20274;-78
2023/06/24 01:46:32;;;;;;;0.70;0.40;;;17.10;99.90;;;;;;5013732;28;20203;-77
2023/06/24 01:49:07;;;;;;;0.85;0.43;;;17.20;99.90;;;;;;5013048;28;20201;-77
2023/06/24 01:51:40;;;;;;;3.53;0.40;;;17.10;99.90;;;;;;5013240;28;20218;-78
2023/06/24 01:54:16;;;;;;;0.32;0.32;;;17.20;99.90;;;;;;5013005;28;20202;-79
2023/06/24 01:56:48;;;;;;;1.17;0.40;;;17.30;99.90;;;;;;5008826;28;20197;-81
2023/06/24 01:59:21;;;;;;;1.85;0.50;;;17.50;99.90;;;;;;5010955;28;20195;-80
2023/06/24 02:01:53;;;;;;;0.47;0.40;;;17.60;99.90;;;;;;5008601;28;20563;-78
2023/06/24 02:04:30;;;;;;;1.05;0.40;;;17.70;99.90;;;;;;5013443;28;20210;-80
2023/06/24 02:07:03;;;;;;;0.85;0.40;;;17.50;99.90;;;;;;5010676;28;20282;-78
2023/06/24 02:09:35;;;;;;;2.22;0.40;;;17.50;99.90;;;;;;5012827;28;20200;-77
2023/06/24 02:12:09;;;;;;;3.08;0.45;;;17.60;99.90;;;;;;5009425;28;20595;-77
2023/06/24 02:14:41;;;;;;;0.77;0.40;;;17.60;99.90;;;;;;5009081;28;20199;-75
2023/06/24 02:17:15;;;;;;;0.52;0.50;;;17.80;99.90;;;;;;5010503;28;20215;-77
2023/06/24 02:19:50;;;;;;;1.50;0.40;;;17.90;99.90;;;;;;5011456;28;20296;-77
2023/06/24 02:22:22;;;;;;;0.77;0.30;;;18.00;99.90;;;;;;5009362;28;20190;-76
2023/06/24 02:24:54;;;;;;;0.30;0.30;;;18.00;99.90;;;;;;5012841;28;20206;-76
2023/06/24 02:27:26;;;;;;;1.38;0.50;;;18.00;99.90;;;;;;5009075;28;20289;-76
2023/06/24 02:29:57;;;;;;;2.05;0.52;;;18.00;99.90;;;;;;5010534;28;20658;-77
2023/06/24 02:32:28;;;;;;;0.63;0.32;;;18.20;99.90;;;;;;5011599;28;20219;-77
2023/06/24 02:35:01;;;;;;;0.45;0.30;;;18.10;99.90;;;;;;5010518;28;20666;-77
2023/06/24 02:37:33;;;;;;;0.65;0.30;;;18.10;99.90;;;;;;5012236;28;20195;-77
2023/06/24 02:40:05;;;;;;;0.77;0.38;;;18.10;99.90;;;;;;5012158;28;20221;-77
2023/06/24 02:42:36;;;;;;;0.75;0.32;;;18.20;99.90;;;;;;5008795;28;20600;-76
2023/06/24 02:45:08;;;;;;;1.00;0.50;;;18.30;99.90;;;;;;5036848;28;20590;-78
2023/06/24 02:47:40;;;;;;;0.85;0.40;;;18.30;99.90;;;;;;5025084;28;20198;-78
2023/06/24 02:50:14;;;;;;;0.95;0.22;;;18.40;99.90;;;;;;5016948;28;20571;-79
2023/06/24 02:52:45;;;;;;;1.23;0.43;;;18.50;99.90;;;;;;5016861;28;20222;-78
2023/06/24 02:55:17;;;;;;;0.47;0.38;;;18.50;99.90;;;;;;5015887;28;20781;-80
2023/06/24 02:57:48;;;;;;;0.60;0.50;;;18.60;99.90;;;;;;5015848;28;20209;-76
2023/06/24 03:00:20;;;;;;;1.65;0.30;;;18.60;99.90;;;;;;5021140;28;20221;-76
2023/06/24 03:02:52;;;;;;;0.75;0.52;;;18.60;99.90;;;;;;5016726;28;20278;-77
2023/06/24 03:05:25;;;;;;;1.98;0.40;;;18.60;99.90;;;;;;5016700;28;20631;-76
2023/06/24 03:07:56;;;;;;;2.55;0.40;;;18.60;99.90;;;;;;5016335;28;20207;-77
2023/06/24 03:10:27;;;;;;;1.17;0.40;;;18.60;99.90;;;;;;5010298;28;20199;-75
2023/06/24 03:12:58;;;;;;;0.68;0.43;;;18.60;99.90;;;;;;5010533;28;20215;-77
2023/06/24 03:15:29;;;;;;;0.47;0.35;;;18.60;99.90;;;;;;5014046;28;20206;-76
2023/06/24 03:18:00;;;;;;;1.35;0.40;;;18.70;99.90;;;;;;5014118;28;20245;-78
2023/06/24 03:20:38;;;;;;;0.40;0.40;;;18.70;99.90;;;;;;5014654;28;20234;-77
2023/06/24 03:23:09;;;;;;;0.90;0.50;;;18.80;99.90;;;;;;5013503;28;20230;-77
2023/06/24 03:25:40;;;;;;;1.67;0.60;;;18.90;99.90;;;;;;5012108;28;20206;-77
2023/06/24 03:28:11;;;;;;;0.40;0.40;;;18.90;99.90;;;;;;5003276;28;20199;-77
2023/06/24 03:30:42;;;;;;;0.73;0.50;;;18.90;99.90;;;;;;5010213;28;20562;-78
2023/06/24 03:33:16;;;;;;;1.27;0.85;;;19.00;99.90;;;;;;5012852;28;20228;-79
2023/06/24 03:35:49;;;;;;;0.90;0.50;;;19.10;99.90;;;;;;5010508;28;20558;-78
2023/06/24 03:38:20;;;;;;;0.75;0.40;;;19.10;99.90;;;;;;5015997;28;20672;-77
2023/06/24 03:40:50;;;;;;;0.30;0.30;;;19.10;99.90;;;;;;5012511;28;20654;-77
2023/06/24 03:43:21;;;;;;;1.10;0.30;;;19.10;99.90;;;;;;5014628;28;20278;-78
2023/06/24 03:45:52;;;;;;;0.77;0.40;;;19.10;99.90;;;;;;5012497;28;20569;-77
2023/06/24 03:48:23;;;;;;;0.63;0.30;;;19.10;99.90;;;;;;5011190;28;20191;-77
2023/06/24 03:50:56;;;;;;;2.25;0.50;;;19.10;99.90;;;;;;5011082;28;20872;-77
2023/06/24 03:53:26;;;;;;;0.32;0.32;;;19.20;99.90;;;;;;5009486;28;20598;-77
2023/06/24 03:55:57;;;;;;;0.77;0.30;;;19.20;99.90;;;;;;5010381;28;20198;-78
2023/06/24 03:58:28;;;;;;;0.28;0.20;;;19.20;99.90;;;;;;5017917;28;20203;-78
2023/06/24 04:00:59;;;;;;;0.73;0.40;;;19.20;99.90;;;;;;5015323;28;20213;-79
2023/06/24 04:03:31;;;;;;;0.50;0.35;;;19.20;99.90;;;;;;5013361;28;20202;-77
2023/06/24 04:06:04;;;;;;;1.05;0.80;;;19.20;99.90;;;;;;5015349;28;20694;-77
2023/06/24 04:08:35;;;;;;;0.43;0.30;;;19.10;99.90;;;;;;5014767;28;20202;-78
2023/06/24 04:11:06;;;;;;;0.32;0.22;;;19.20;99.90;;;;;;5015113;28;20285;-77
2023/06/24 04:13:37;;;;;;;1.35;0.30;;;19.20;99.90;;;;;;5013907;28;20219;-78
2023/06/24 04:16:08;;;;;;;2.65;1.80;;;19.20;99.90;;;;;;5010737;28;21046;-78
2023/06/24 04:18:39;;;;;;;0.75;0.40;;;19.20;99.90;;;;;;5009240;28;20651;-77
2023/06/24 04:21:12;;;;;;;0.38;0.38;;;19.20;99.90;;;;;;5014875;28;20206;-77
2023/06/24 04:23:43;;;;;;;0.20;0.20;;;19.30;99.90;;;;;;5010286;28;20215;-78
2023/06/24 04:26:14;;;;;;;0.73;0.40;;;19.30;99.90;;;;;;5014792;28;20206;-77
2023/06/24 04:28:44;;;;;;;0.77;0.20;;;19.30;99.90;;;;;;5014959;28;20195;-78
2023/06/24 04:31:15;;;;;;;0.77;0.28;;;19.20;99.90;;;;;;5014644;28;20208;-77
2023/06/24 04:33:46;;;;;;;0.55;0.30;;;19.30;99.90;;;;;;5014750;28;20219;-77
2023/06/24 04:36:19;;;;;;;1.33;0.50;;;19.30;99.90;;;;;;5012929;28;20199;-77
2023/06/24 04:38:49;;;;;;;0.63;0.20;;;19.30;99.90;;;;;;5011943;28;20194;-77
2023/06/24 04:41:20;;;;;;;0.60;0.40;;;19.30;99.90;;;;;;5014635;28;20206;-78
2023/06/24 04:43:57;;;;;;;2.15;0.40;;;19.30;99.90;;;;;;5012220;28;20202;-78
2023/06/24 04:46:27;;;;;;;1.45;0.30;;;19.30;99.90;;;;;;5015080;28;20198;-78
2023/06/24 04:48:59;;;;;;;0.77;0.40;;;19.30;99.90;;;;;;5005209;28;20196;-77
2023/06/24 04:51:31;;;;;;;0.88;0.30;;;19.40;99.90;;;;;;5012270;28;20222;-79
2023/06/24 04:54:03;;;;;;;2.88;0.60;;;19.40;99.90;;;;;;5013781;28;20334;-78
2023/06/24 04:56:34;;;;;;;1.55;0.40;;;19.30;99.90;;;;;;5013713;28;20191;-78
2023/06/24 04:59:05;;;;;;;1.58;0.50;;;19.30;99.90;;;;;;5012655;28;20198;-78
2023/06/24 05:01:35;;;;;;;0.90;0.40;;;19.30;99.90;;;;;;5011896;28;20199;-77
2023/06/24 05:04:06;;;;;;;2.65;0.40;;;19.40;99.90;;;;;;5013346;28;20202;-78
2023/06/24 05:06:39;;;;;;;1.90;0.60;;;19.40;99.90;;;;;;5010443;28;20693;-78
2023/06/24 05:09:13;;;;;;;1.42;0.50;;;19.50;99.90;;;;;;5011441;28;20199;-80
2023/06/24 05:11:43;;;;;;;0.82;0.28;;;19.40;99.90;;;;;;5013829;28;20203;-83
2023/06/24 05:14:14;;;;;;;0.55;0.55;;;19.50;99.90;;;;;;5014247;28;20298;-79
2023/06/24 05:16:45;;;;;;;1.38;0.50;;;19.50;99.90;;;;;;5014006;28;20280;-80
2023/06/24 05:19:16;;;;;;;0.50;0.30;;;19.40;99.90;;;;;;5013988;28;20231;-79
2023/06/24 05:21:48;;;;;;;0.80;0.40;;;19.40;99.90;;;;;;5013628;28;20198;-78
2023/06/24 05:24:19;;;;;;;0.30;0.30;;;19.30;99.90;;;;;;5014031;28;20195;-78
2023/06/24 05:26:53;;;;;;;0.55;0.35;;;19.30;99.90;;;;;;5013970;28;20199;-77
2023/06/24 05:29:24;;;;;;;0.88;0.50;;;19.20;99.90;;;;;;5013757;28;20203;-78
2023/06/24 05:31:55;;;;;;;0.40;0.40;;;19.20;99.90;;;;;;5013845;28;20205;-80
2023/06/24 05:34:25;;;;;;;0.50;0.30;;;19.20;99.90;;;;;;5013813;28;20191;-78
2023/06/24 05:36:58;;;;;;;0.75;0.40;;;19.10;99.90;;;;;;5013508;28;20670;-79
2023/06/24 05:39:29;;;;;;;0.40;0.40;;;19.10;99.90;;;;;;5013793;28;20206;-79
2023/06/24 05:42:00;;;;;;;1.17;0.40;;;19.10;99.90;;;;;;5013752;28;20195;-79
2023/06/24 05:44:31;;;;;;;1.52;0.40;;;19.00;99.90;;;;;;5013790;28;20211;-78
2023/06/24 05:47:01;;;;;;;2.15;0.60;;;19.00;99.90;;;;;;5013625;28;20536;-78
2023/06/24 05:49:32;;;;;;;1.58;0.68;;;18.90;99.90;;;;;;5001221;28;20195;-77
2023/06/24 05:52:05;;;;;;;1.52;0.60;;;18.90;99.90;;;;;;5013581;28;20289;-79
2023/06/24 05:54:36;;;;;;;1.35;0.68;;;18.90;99.90;;;;;;5013540;28;20203;-77
2023/06/24 05:57:07;;;;;;;2.75;0.70;;;18.90;99.90;;;;;;5013663;28;20207;-78
2023/06/24 05:59:38;;;;;;;0.80;0.70;;;18.80;99.90;;;;;;5013319;28;20203;-78
2023/06/24 06:02:09;;;;;;;1.40;0.60;;;18.80;99.90;;;;;;5013165;28;20203;-78
2023/06/24 06:04:41;;;;;;;2.08;0.70;;;18.70;99.90;;;;;;5013011;28;20195;-78
2023/06/24 06:07:13;;;;;;;1.90;0.70;;;18.70;99.90;;;;;;5013195;28;20245;-78
2023/06/24 06:09:44;;;;;;;1.08;0.70;;;18.70;99.90;;;;;;5013602;28;20211;-79
2023/06/24 06:12:15;;;;;;;0.82;0.55;;;18.70;99.90;;;;;;5013386;28;20191;-79
2023/06/24 06:14:45;;;;;;;1.02;0.60;;;18.60;99.90;;;;;;5017352;28;20202;-78
2023/06/24 06:17:16;;;;;;;1.23;0.60;;;18.60;99.90;;;;;;5019639;28;20253;-78
2023/06/24 06:19:47;;;;;;;0.50;0.40;;;18.50;99.90;;;;;;5019209;28;20238;-78
2023/06/24 06:22:20;;;;;;;0.63;0.40;;;18.50;99.90;;;;;;5019805;28;20685;-78
2023/06/24 06:24:50;;;;;;;2.45;0.57;;;18.40;99.90;;;;;;5019532;28;20203;-79
2023/06/24 06:27:21;;;;;;;0.70;0.60;;;18.30;99.90;;;;;;5019822;28;20199;-77
2023/06/24 06:29:52;;;;;;;1.33;0.90;;;18.20;99.90;;;;;;5019507;28;20202;-77
2023/06/24 06:32:22;;;;;;;1.10;1.00;;;18.10;99.90;;;;;;5019694;28;20252;-77
2023/06/24 06:34:53;;;;;;;0.95;0.70;;;18.00;99.90;;;;;;5014505;28;20680;-77
2023/06/24 06:37:25;;;;;;;1.02;0.73;;;17.90;99.90;;;;;;5014979;28;20194;-77
2023/06/24 06:39:56;;;;;;;2.13;0.80;;;17.80;99.90;;;;;;5012174;28;20203;-77
2023/06/24 06:42:27;;;;;;;1.05;0.63;;;17.70;99.90;;;;;;5014266;28;20562;-78
2023/06/24 06:44:57;;;;;;;0.68;0.60;;;17.60;99.90;;;;;;5022319;28;20203;-78
2023/06/24 06:47:28;;;;;;;0.90;0.70;;;17.50;99.90;;;;;;5013705;28;20245;-77
2023/06/24 06:49:59;;;;;;;2.10;1.00;;;17.40;99.90;;;;;;5018005;28;20202;-78
2023/06/24 06:52:31;;;;;;;1.35;0.90;;;17.20;99.90;;;;;;5018736;28;20191;-77
2023/06/24 06:55:02;;;;;;;2.90;1.45;;;17.10;99.90;;;;;;5017402;28;20230;-77
2023/06/24 06:57:33;;;;;;;1.92;1.30;;;16.90;99.90;;;;;;5014478;28;20195;-77
2023/06/24 07:00:03;;;;;;;2.00;1.10;;;16.70;99.90;;;;;;5019355;28;20218;-79
2023/06/24 07:02:34;;;;;;;0.93;0.88;;;16.60;99.90;;;;;;5010884;28;20681;-79
2023/06/24 07:05:05;;;;;;;1.33;0.82;;;16.50;99.90;;;;;;5015811;28;20195;-79
2023/06/24 07:07:37;;;;;;;2.53;1.17;;;16.40;99.90;;;;;;5018038;28;20198;-80
2023/06/24 07:10:08;;;;;;;0.85;0.80;;;16.40;99.90;;;;;;5016289;28;20206;-79
2023/06/24 07:12:39;;;;;;;0.98;0.80;;;16.40;99.90;;;;;;5017504;28;20206;-79
2023/06/24 07:15:10;;;;;;;1.30;0.90;;;16.30;99.90;;;;;;5017227;28;20202;-78
2023/06/24 07:17:41;;;;;;;1.00;0.80;;;16.30;99.90;;;;;;5017163;28;20775;-78
2023/06/24 07:20:12;;;;;;;2.47;0.90;;;16.20;99.90;;;;;;5016985;28;20261;-79
2023/06/24 07:22:46;;;;;;;2.47;1.40;;;16.10;99.90;;;;;;5016291;28;20199;-79
2023/06/24 07:25:17;;;;;;;2.05;1.70;;;16.10;99.90;;;;;;5015279;28;20643;-79
2023/06/24 07:27:48;;;;;;;2.22;1.70;;;16.00;99.90;;;;;;5014121;28;20202;-79
2023/06/24 07:30:19;;;;;;;1.77;1.52;;;16.00;99.90;;;;;;5014625;28;20261;-79
2023/06/24 07:32:49;;;;;;;2.55;2.03;;;16.00;99.90;;;;;;5014294;28;20737;-79
2023/06/24 07:35:20;;;;;;;2.75;2.30;;;15.90;99.90;;;;;;5011873;28;20230;-79
2023/06/24 07:37:53;;;;;;;2.15;1.95;;;15.90;99.90;;;;;;5013592;28;20285;-79
2023/06/24 07:40:24;;;;;;;1.80;1.08;;;15.90;99.90;;;;;;5006220;28;20662;-79
2023/06/24 07:42:55;;;;;;;1.30;1.20;;;16.00;99.90;;;;;;5013171;28;20203;-79
2023/06/24 07:45:26;;;;;;;3.95;2.22;;;16.00;99.90;;;;;;5013021;28;20199;-80
2023/06/24 07:47:56;;;;;;;3.30;2.40;;;16.00;99.90;;;;;;5012771;28;20195;-79
2023/06/24 07:50:27;;;;;;;2.33;1.80;;;16.00;99.90;;;;;;5014002;28;20199;-79
2023/06/24 07:53:00;;;;;;;2.75;1.80;;;16.00;99.90;;;;;;5013541;28;20217;-79
2023/06/24 07:55:30;;;;;;;2.78;1.83;;;16.00;99.90;;;;;;5012390;28;20206;-79
2023/06/24 07:58:02;;;;;;;4.28;2.45;;;16.00;99.90;;;;;;5011045;28;20214;-79
2023/06/24 08:00:33;;;;;;;4.28;2.90;;;15.90;99.90;;;;;;5011942;28;20563;-79
2023/06/24 08:03:04;;;;;;;4.40;2.50;;;15.90;99.90;;;;;;5013025;28;20602;-80
2023/06/24 08:05:35;;;;;;;5.47;3.60;;;15.80;99.90;;;;;;5011676;28;20667;-79
2023/06/24 08:08:07;;;;;;;6.38;3.42;;;15.80;99.90;;;;;;5014546;28;20606;-80
2023/06/24 08:10:38;;;;;;;4.60;3.08;;;15.70;99.90;;;;;;5013958;28;20650;-80
2023/06/24 08:13:09;;;;;;;3.25;2.38;;;15.60;99.90;;;;;;5013284;28;20226;-79
2023/06/24 08:15:39;;;;;;;3.22;2.40;;;15.60;99.90;;;;;;5012607;28;20717;-79
2023/06/24 08:18:10;;;;;;;3.97;2.80;;;15.50;99.90;;;;;;5012995;28;20675;-80
2023/06/24 08:20:41;;;;;;;6.90;3.50;;;15.50;99.90;;;;;;5013683;28;20238;-80
2023/06/24 08:23:13;;;;;;;7.45;3.65;;;15.40;99.90;;;;;;5009781;28;20206;-80
2023/06/24 08:25:44;;;;;;;4.82;3.63;;;15.40;99.90;;;;;;5009670;28;20209;-80
2023/06/24 08:28:15;;;;;;;5.32;3.35;;;15.30;99.90;;;;;;5012874;28;20241;-80
2023/06/24 08:30:45;;;;;;;4.82;2.85;;;15.30;99.90;;;;;;5012574;28;20194;-79
2023/06/24 08:33:16;;;;;;;3.13;2.40;;;15.20;99.90;;;;;;5013095;28;20222;-80
2023/06/24 08:35:47;;;;;;;4.45;3.10;;;15.10;99.90;;;;;;5012029;28;20199;-80
2023/06/24 08:38:20;;;;;;;4.47;2.90;;;15.10;99.90;;;;;;5011809;28;20678;-80
2023/06/24 08:40:51;;;;;;;5.72;3.22;;;15.00;99.90;;;;;;5010643;28;22027;-80
2023/06/24 08:43:22;;;;;;;3.85;2.92;;;14.90;99.90;;;;;;5011603;28;20199;-79
2023/06/24 08:45:53;;;;;;;5.80;3.58;;;14.80;99.90;;;;;;5013811;28;20592;-79
2023/06/24 08:48:25;;;;;;;6.00;3.92;;;14.60;99.90;;;;;;5006780;28;20547;-80
2023/06/24 08:50:59;;;;;;;5.60;3.95;;;14.50;99.90;;;;;;5011499;28;20195;-80
2023/06/24 08:53:31;;;;;;;5.88;4.10;;;14.50;99.90;;;;;;5011011;28;20218;-80
2023/06/24 08:56:02;;;;;;;6.22;4.25;;;14.40;99.90;;;;;;5007817;28;20256;-79
2023/06/24 08:58:33;;;;;;;5.60;3.55;;;14.30;99.90;;;;;;5011086;28;20195;-78
2023/06/24 09:01:04;;;;;;;4.82;3.30;;;14.30;99.90;;;;;;5011379;28;20199;-77
2023/06/24 09:03:35;;;;;;;5.45;3.20;;;14.20;99.90;;;;;;5010877;28;20195;-77
2023/06/24 09:06:06;;;;;;;3.67;2.60;;;14.20;99.90;;;;;;5010099;28;20294;-78
2023/06/24 09:08:39;;;;;;;4.55;2.60;;;14.20;99.90;;;;;;5010111;28;20205;-78
2023/06/24 09:11:12;;;;;;;4.65;2.42;;;14.10;99.90;;;;;;5014217;28;20260;-78
2023/06/24 09:13:43;;;;;;;4.03;2.55;;;14.00;99.90;;;;;;5012907;28;20215;-79
2023/06/24 09:16:17;;;;;;;3.17;2.40;;;14.00;99.90;;;;;;5013425;28;20775;-79
2023/06/24 09:18:52;;;;;;;3.70;2.70;;;13.90;99.90;;;;;;5011598;28;20241;-79
2023/06/24 09:21:30;;;;;;;3.42;2.55;;;13.90;99.90;;;;;;5012381;28;20195;-79
2023/06/24 09:24:02;;;;;;;4.18;2.80;;;13.80;99.90;;;;;;5011109;28;20285;-78
2023/06/24 09:26:33;;;;;;;3.95;2.42;;;13.80;99.90;;;;;;5010454;28;20195;-78
2023/06/24 09:29:04;;;;;;;3.75;2.83;;;13.70;99.90;;;;;;5011058;28;20199;-78
2023/06/24 09:31:34;;;;;;;3.78;2.60;;;13.60;99.90;;;;;;5009591;28;20636;-78
2023/06/24 09:34:05;;;;;;;4.40;2.92;;;13.60;99.90;;;;;;5012166;28;20250;-78
2023/06/24 09:36:36;;;;;;;4.07;2.60;;;13.50;99.90;;;;;;5004603;28;20191;-78
2023/06/24 09:39:09;;;;;;;5.63;3.65;;;13.40;99.90;;;;;;5007473;28;20200;-78
2023/06/24 09:41:43;;;;;;;5.35;3.70;;;13.30;99.90;;;;;;5012087;28;20234;-78
2023/06/24 09:44:15;;;;;;;5.28;3.78;;;13.20;99.90;;;;;;5011614;28;20203;-78
2023/06/24 09:46:47;;;;;;;7.65;4.13;;;13.10;99.90;;;;;;5011502;28;20282;-78
2023/06/24 09:49:18;;;;;;;8.85;3.92;;;13.10;99.90;;;;;;5011908;28;20234;-78
2023/06/24 09:51:50;;;;;;;5.93;4.10;;;13.00;99.90;;;;;;5009647;28;20194;-78
2023/06/24 09:54:23;;;;;;;6.05;4.00;;;13.00;99.90;;;;;;5009508;28;20694;-77
2023/06/24 09:56:55;;;;;;;5.13;3.35;;;13.00;99.90;;;;;;5011983;28;20662;-78
2023/06/24 09:59:26;;;;;;;5.80;3.72;;;12.90;99.90;;;;;;5010734;28;20201;-77
2023/06/24 10:01:57;;;;;;;6.90;4.07;;;12.90;99.90;;;;;;5012403;28;20203;-77
2023/06/24 10:04:30;;;;;;;5.75;3.95;;;12.90;99.90;;;;;;5011339;28;20195;-78
2023/06/24 10:07:02;;;;;;;5.85;3.97;;;12.90;99.90;;;;;;5009692;28;20199;-78
2023/06/24 10:09:35;;;;;;;8.65;4.25;;;12.80;99.90;;;;;;5011175;28;20198;-78
2023/06/24 10:12:09;;;;;;;6.65;3.85;;;12.80;99.90;;;;;;5011455;28;20191;-78
2023/06/24 10:14:40;;;;;;;5.57;3.88;;;12.80;99.90;;;;;;5012154;28;20264;-77
2023/06/24 10:17:11;;;;;;;5.97;4.07;;;12.70;99.90;;;;;;5010746;28;20689;-78
2023/06/24 10:19:46;;;;;;;6.75;3.90;;;12.70;99.90;;;;;;5011244;28;20390;-77
2023/06/24 10:22:17;;;;;;;6.15;4.05;;;12.70;99.90;;;;;;5010700;28;20205;-77
2023/06/24 10:24:50;;;;;;;5.43;3.78;;;12.60;99.90;;;;;;5012425;28;20734;-78
2023/06/24 10:27:23;;;;;;;8.73;4.47;;;12.60;99.90;;;;;;5010953;28;20206;-78
2023/06/24 10:29:55;;;;;;;10.57;7.22;;;12.50;99.90;;;;;;5012065;28;20195;-78
2023/06/24 10:32:27;;;;;;;12.05;7.50;;;12.50;99.90;;;;;;5011804;28;20198;-77
2023/06/24 10:34:59;;;;;;;10.55;6.80;;;12.50;99.90;;;;;;5012616;28;20250;-79
2023/06/24 10:37:33;;;;;;;14.15;10.07;;;12.40;99.90;;;;;;5011907;28;20245;-77
2023/06/24 10:40:12;;;;;;;18.05;11.98;;;12.40;99.90;;;;;;5010319;28;20198;-78
2023/06/24 10:42:44;;;;;;;16.80;11.32;;;12.40;99.90;;;;;;5013512;28;20199;-79
2023/06/24 10:45:22;;;;;;;13.25;9.73;;;12.40;99.90;;;;;;5009924;28;20203;-78
2023/06/24 10:47:59;;;;;;;13.40;8.95;;;12.30;99.90;;;;;;5005664;28;20199;-78
2023/06/24 10:50:30;;;;;;;13.13;8.32;;;12.30;99.90;;;;;;5008485;28;20195;-78
2023/06/24 10:53:01;;;;;;;13.73;8.05;;;12.30;99.90;;;;;;5009138;28;20203;-78
2023/06/24 10:55:35;;;;;;;13.48;8.27;;;12.30;99.90;;;;;;5008090;28;20219;-78
2023/06/24 10:58:15;;;;;;;12.95;7.60;;;12.20;99.90;;;;;;5009572;28;20246;-78
2023/06/24 11:00:46;;;;;;;11.60;7.55;;;12.20;99.90;;;;;;4999464;28;20203;-78
2023/06/24 11:03:18;;;;;;;12.02;7.65;;;12.20;99.90;;;;;;5011403;28;20195;-79
2023/06/24 11:05:53;;;;;;;10.45;6.40;;;12.20;99.90;;;;;;5014480;28;20237;-78
2023/06/24 11:08:25;;;;;;;9.23;6.43;;;12.20;99.90;;;;;;5016376;28;20325;-78
2023/06/24 11:10:57;;;;;;;8.88;5.55;;;12.20;99.90;;;;;;5016345;28;20253;-78
2023/06/24 11:13:32;;;;;;;6.80;4.80;;;12.20;99.90;;;;;;5015053;28;20206;-78
2023/06/24 11:16:05;;;;;;;6.32;4.20;;;12.20;99.90;;;;;;5012691;28;20242;-78
2023/06/24 11:18:41;;;;;;;9.15;4.15;;;12.20;99.90;;;;;;5015571;28;20277;-80
2023/06/24 11:21:13;;;;;;;6.80;3.70;;;12.20;99.90;;;;;;5015793;28;20207;-78
2023/06/24 11:23:45;;;;;;;4.97;3.70;;;12.30;99.90;;;;;;5014199;28;20203;-78
2023/06/24 11:26:18;;;;;;;6.80;3.40;;;12.30;99.90;;;;;;5010360;28;20192;-77
2023/06/24 11:28:51;;;;;;;4.22;3.00;;;12.40;99.90;;;;;;5012001;28;20203;-80
2023/06/24 11:31:26;;;;;;;5.60;3.28;;;12.40;99.90;;;;;;5000493;28;20655;-78
2023/06/24 11:33:57;;;;;;;6.25;3.22;;;12.50;99.90;;;;;;5012279;28;20199;-80
2023/06/24 11:36:28;;;;;;;5.22;3.03;;;12.50;99.90;;;;;;5010204;28;20217;-79
2023/06/24 11:38:59;;;;;;;6.03;3.13;;;12.50;99.90;;;;;;5011083;28;20593;-80
2023/06/24 11:41:32;;;;;;;4.53;2.97;;;12.50;99.90;;;;;;5003340;28;20264;-80
2023/06/24 11:44:03;;;;;;;5.10;2.90;;;12.50;99.90;;;;;;5016322;28;20197;-80
2023/06/24 11:46:35;;;;;;;3.88;2.38;;;12.60;99.90;;;;;;5016044;28;20282;-79
2023/06/24 11:49:09;;;;;;;4.10;2.67;;;12.60;99.90;;;;;;5010002;28;20254;-79
2023/06/24 11:51:47;;;;;;;3.38;2.40;;;12.60;99.90;;;;;;5008679;28;20202;-80
2023/06/24 11:54:19;;;;;;;3.67;2.45;;;12.60;99.90;;;;;;5015870;28;20298;-80
2023/06/24 11:56:54;;;;;;;5.47;2.60;;;12.50;99.90;;;;;;5018248;28;20191;-80
2023/06/24 11:59:26;;;;;;;3.55;2.55;;;12.50;99.90;;;;;;5021209;28;20206;-80
2023/06/24 12:01:58;;;;;;;3.03;2.63;;;12.50;99.90;;;;;;5015706;28;20187;-80
2023/06/24 12:04:33;;;;;;;3.20;2.47;;;12.40;99.90;;;;;;5013921;28;20207;-80
2023/06/24 12:07:04;;;;;;;5.07;2.90;;;12.30;99.90;;;;;;5013633;28;20198;-80
2023/06/24 12:09:35;;;;;;;4.85;2.95;;;12.30;99.90;;;;;;5022011;28;20198;-80
2023/06/24 12:12:08;;;;;;;3.72;2.90;;;12.20;99.90;;;;;;5034963;28;20281;-80
2023/06/24 12:14:39;;;;;;;3.85;2.47;;;12.10;99.90;;;;;;5022097;28;20257;-80
2023/06/24 12:17:10;;;;;;;4.22;2.85;;;12.10;99.90;;;;;;5015268;28;20309;-80
2023/06/24 12:19:42;;;;;;;5.18;2.90;;;12.10;99.90;;;;;;5014588;28;20238;-80
2023/06/24 12:22:13;;;;;;;5.03;2.85;;;12.00;99.90;;;;;;5015099;28;20677;-80
2023/06/24 12:24:43;;;;;;;4.05;2.60;;;12.00;99.90;;;;;;5014927;28;20210;-80
2023/06/24 12:27:16;;;;;;;3.45;2.35;;;12.00;99.90;;;;;;5015269;28;20195;-80
2023/06/24 12:29:47;;;;;;;4.47;2.67;;;12.00;99.90;;;;;;5015311;28;20195;-80
2023/06/24 12:32:18;;;;;;;4.35;2.30;;;12.00;99.90;;;;;;5000419;28;20238;-80
2023/06/24 12:34:48;;;;;;;5.70;2.13;;;12.00;99.90;;;;;;5014725;28;20218;-80
2023/06/24 12:37:26;;;;;;;3.83;2.47;;;12.00;99.90;;;;;;5015042;28;20206;-79
2023/06/24 12:40:00;;;;;;;3.20;2.05;;;12.00;99.90;;;;;;5015118;28;20273;-81
2023/06/24 12:42:32;;;;;;;6.65;2.28;;;12.00;99.90;;;;;;5015453;28;20230;-80
2023/06/24 12:45:03;;;;;;;1.98;1.77;;;12.00;99.90;;;;;;5014876;28;20209;-80
2023/06/24 12:47:34;;;;;;;3.75;1.83;;;12.00;99.90;;;;;;5014494;28;20694;-80
2023/06/24 12:50:06;;;;;;;3.80;2.00;;;12.00;99.90;;;;;;5014530;28;20202;-80
2023/06/24 12:52:38;;;;;;;3.78;2.25;;;12.00;99.90;;;;;;5014859;28;20191;-80
2023/06/24 12:55:11;;;;;;;5.03;3.00;;;12.00;99.90;;;;;;5013362;28;20218;-80
2023/06/24 12:57:44;;;;;;;5.07;2.55;;;11.90;99.90;;;;;;5014902;28;20708;-80
2023/06/24 13:00:15;;;;;;;3.40;2.35;;;11.80;99.90;;;;;;5014805;28;20195;-79
2023/06/24 13:02:46;;;;;;;3.85;2.20;;;11.80;99.90;;;;;;5013564;28;20689;-80
2023/06/24 13:05:17;;;;;;;2.80;1.83;;;11.80;99.90;;;;;;5012900;28;20200;-80
2023/06/24 13:07:48;;;;;;;2.53;1.55;;;11.80;99.90;;;;;;5014727;28;20692;-79
2023/06/24 13:10:19;;;;;;;2.38;1.58;;;11.90;99.90;;;;;;5014554;28;20187;-78